Time;durP1;ratioP1;P1;durP2;ratioP2;P2;SDS_P1;SDS_P2;PMS_P1;PMS_P2;Temp;Humidity;BMP_temperature;BMP_pressure;BME280_temperature;BME280_humidity;BME280_pressure;Samples;Min_cycle;Max_cycle;Signal;HPM_P1;HPM_P2
2022/01/26 00:07:52;;;;;;;32.67;13.52;;;4.20;87.80;;;;;;5054531;28;20408;-82
2022/01/26 00:10:19;;;;;;;28.17;11.43;;;4.20;88.30;;;;;;5038745;28;20068;-84
2022/01/26 00:12:46;;;;;;;31.67;12.55;;;4.20;88.40;;;;;;5041836;28;20075;-85
2022/01/26 00:15:14;;;;;;;36.22;14.52;;;4.20;87.70;;;;;;5025775;28;20037;-85
2022/01/26 00:17:41;;;;;;;28.50;11.70;;;4.20;87.70;;;;;;5042422;28;20477;-85
2022/01/26 00:22:55;;;;;;;30.23;13.13;;;4.20;87.80;;;;;;5059443;28;20048;-83
2022/01/26 00:25:39;;;;;;;29.95;12.32;;;4.20;87.90;;;;;;5031058;28;20120;-85
2022/01/26 00:28:29;;;;;;;34.55;14.63;;;4.20;87.90;;;;;;5059443;28;20131;-85
2022/01/26 00:38:59;;;;;;;47.20;19.55;;;4.10;87.70;;;;;;5058781;28;20044;-85
2022/01/26 00:41:35;;;;;;;37.97;16.50;;;4.00;87.50;;;;;;5042439;28;20045;-85
2022/01/26 00:44:05;;;;;;;36.80;14.38;;;4.00;87.60;;;;;;5027155;28;20048;-86
2022/01/26 00:46:36;;;;;;;35.90;15.93;;;4.00;87.70;;;;;;5042759;28;20054;-85
2022/01/26 00:49:03;;;;;;;35.63;14.68;;;4.00;88.30;;;;;;5026334;28;20140;-85
2022/01/26 00:51:30;;;;;;;39.85;15.82;;;3.90;87.60;;;;;;5059154;28;20053;-85
2022/01/26 00:54:05;;;;;;;47.72;18.85;;;4.00;87.60;;;;;;5058492;28;20048;-85
2022/01/26 00:56:32;;;;;;;49.55;19.98;;;4.00;87.50;;;;;;5042112;28;20045;-85
2022/01/26 00:59:00;;;;;;;52.05;21.17;;;3.90;87.30;;;;;;5041833;28;20049;-84
2022/01/26 01:01:28;;;;;;;49.47;20.55;;;3.90;87.30;;;;;;5042169;28;20072;-85
2022/01/26 01:03:56;;;;;;;53.05;19.13;;;3.90;87.30;;;;;;5025493;28;20063;-84
2022/01/26 01:06:26;;;;;;;43.38;19.13;;;3.90;87.30;;;;;;5041716;28;20063;-84
2022/01/26 01:08:56;;;;;;;40.08;16.85;;;3.90;87.50;;;;;;5058362;28;20408;-84
2022/01/26 01:11:25;;;;;;;42.67;15.15;;;3.90;87.60;;;;;;5025813;28;20136;-85
2022/01/26 01:13:53;;;;;;;46.30;17.92;;;3.90;87.60;;;;;;5041450;28;20078;-84
2022/01/26 01:16:22;;;;;;;45.95;17.98;;;3.90;87.40;;;;;;5041347;28;20443;-84
2022/01/26 01:22:00;;;;;;;43.65;16.40;;;3.90;87.40;;;;;;5025449;28;20048;-84
2022/01/26 01:24:39;;;;;;;37.35;15.80;;;3.90;87.40;;;;;;5057703;28;20059;-84
2022/01/26 01:27:44;;;;;;;43.28;16.73;;;3.90;87.50;;;;;;5057490;28;20182;-84
2022/01/26 01:30:11;;;;;;;43.00;16.05;;;3.90;87.40;;;;;;5043695;28;20056;-84
2022/01/26 01:32:50;;;;;;;39.63;16.23;;;3.90;87.40;;;;;;5027202;28;20052;-84
2022/01/26 01:35:20;;;;;;;41.97;15.02;;;3.90;87.50;;;;;;5026099;28;20044;-84
2022/01/26 01:37:48;;;;;;;38.40;12.98;;;3.90;87.50;;;;;;5041028;28;20079;-84
2022/01/26 01:40:20;;;;;;;36.33;14.73;;;3.90;87.50;;;;;;5057920;28;20040;-84
2022/01/26 01:42:47;;;;;;;31.30;12.93;;;3.90;87.60;;;;;;5025129;28;20048;-84
2022/01/26 01:45:14;;;;;;;37.67;14.70;;;3.90;87.50;;;;;;5057494;28;20125;-84
2022/01/26 01:47:41;;;;;;;38.28;15.45;;;3.90;87.50;;;;;;5057118;28;20044;-84
2022/01/26 01:50:11;;;;;;;37.92;15.13;;;3.90;87.50;;;;;;5007849;28;20044;-85
2022/01/26 01:52:38;;;;;;;37.90;14.00;;;3.90;87.50;;;;;;5040240;28;20049;-84
2022/01/26 01:55:06;;;;;;;34.55;13.68;;;3.90;87.50;;;;;;5056521;28;20507;-84
2022/01/26 01:57:33;;;;;;;30.27;11.52;;;3.90;87.60;;;;;;5023597;28;20056;-84
2022/01/26 02:00:00;;;;;;;32.83;13.57;;;3.90;87.50;;;;;;5040169;28;20150;-83
2022/01/26 02:02:30;;;;;;;34.20;13.20;;;3.90;87.50;;;;;;5057379;28;20044;-84
2022/01/26 02:04:58;;;;;;;33.47;12.40;;;3.90;87.50;;;;;;5040194;28;20044;-84
2022/01/26 02:07:26;;;;;;;31.63;12.82;;;3.90;87.50;;;;;;5040657;28;20040;-84
2022/01/26 02:09:53;;;;;;;26.60;10.80;;;3.90;88.20;;;;;;5040796;28;20050;-84
2022/01/26 02:12:23;;;;;;;26.90;10.10;;;3.90;87.60;;;;;;5040510;28;20058;-84
2022/01/26 02:15:02;;;;;;;21.05;8.30;;;3.90;87.70;;;;;;5008827;28;20048;-84
2022/01/26 02:18:09;;;;;;;26.15;11.23;;;4.00;87.80;;;;;;5040302;28;20047;-84
2022/01/26 02:56:37;;;;;;;39.80;15.48;;;3.90;87.40;;;;;;5041799;28;20444;-84
2022/01/26 03:06:48;;;;;;;43.50;15.73;;;3.90;87.40;;;;;;5039048;28;20086;-84
2022/01/26 03:09:24;;;;;;;41.30;16.55;;;3.90;87.40;;;;;;5041306;28;20500;-84
2022/01/26 03:11:51;;;;;;;43.42;16.20;;;3.90;87.40;;;;;;5055761;28;20596;-84
2022/01/26 03:14:32;;;;;;;45.17;17.55;;;3.90;87.40;;;;;;5039605;28;20127;-84
2022/01/26 03:17:09;;;;;;;38.53;16.85;;;3.90;87.30;;;;;;5039006;28;20481;-83
2022/01/26 03:19:47;;;;;;;42.20;16.55;;;3.90;87.30;;;;;;5040571;28;20047;-84
2022/01/26 03:35:59;;;;;;;40.97;15.70;;;3.90;87.20;;;;;;5055462;28;20174;-84
2022/01/26 03:38:39;;;;;;;34.00;14.25;;;3.90;87.40;;;;;;5055554;28;20041;-84
2022/01/26 03:43:38;;;;;;;35.20;14.55;;;4.00;87.50;;;;;;5039391;28;20044;-84
2022/01/26 03:46:05;;;;;;;31.60;13.00;;;4.00;87.60;;;;;;5037990;28;20075;-84
2022/01/26 03:48:32;;;;;;;30.40;12.25;;;4.00;87.60;;;;;;5022748;28;20126;-84
2022/01/26 03:51:00;;;;;;;32.45;11.93;;;4.00;87.60;;;;;;5038885;28;20047;-83
2022/01/26 03:53:28;;;;;;;36.80;14.45;;;4.00;87.50;;;;;;5039947;28;20044;-85
2022/01/26 03:55:55;;;;;;;50.28;20.40;;;4.00;87.50;;;;;;5039098;28;20044;-85
2022/01/26 03:58:23;;;;;;;45.70;19.77;;;4.00;87.20;;;;;;5055759;28;20496;-84
2022/01/26 04:00:50;;;;;;;40.55;19.00;;;4.00;87.20;;;;;;5039100;28;20060;-85
2022/01/26 04:03:17;;;;;;;40.88;16.30;;;4.00;87.30;;;;;;5022609;28;20127;-84
2022/01/26 04:05:45;;;;;;;38.70;15.93;;;4.00;87.40;;;;;;5022904;28;20535;-84
2022/01/26 04:08:19;;;;;;;34.63;13.50;;;4.00;87.40;;;;;;5039408;28;20052;-84
2022/01/26 04:13:22;;;;;;;33.08;13.13;;;4.10;87.50;;;;;;5024365;28;20059;-84
2022/01/26 04:15:49;;;;;;;33.70;12.93;;;4.10;88.00;;;;;;5006278;28;20044;-84
2022/01/26 04:18:22;;;;;;;28.58;11.88;;;4.10;87.50;;;;;;5055265;28;20041;-84
2022/01/26 04:20:53;;;;;;;30.23;12.43;;;4.10;87.60;;;;;;5038516;28;20481;-84
2022/01/26 04:23:49;;;;;;;30.75;12.63;;;4.10;87.50;;;;;;5006940;28;20512;-84
2022/01/26 04:26:08;;;;;;;24.00;9.93;;;4.10;87.60;;;;;;5041042;28;20523;-85
2022/01/26 04:28:42;;;;;;;23.60;10.50;;;4.10;87.60;;;;;;5022493;28;20041;-84
2022/01/26 04:31:10;;;;;;;29.52;11.48;;;4.20;87.70;;;;;;5039492;28;20523;-85
2022/01/26 04:33:37;;;;;;;27.33;11.52;;;4.20;87.60;;;;;;5055200;28;20049;-84
2022/01/26 04:36:09;;;;;;;27.13;12.40;;;4.20;87.60;;;;;;5021888;28;20053;-84
2022/01/26 04:38:46;;;;;;;24.58;9.40;;;4.20;88.30;;;;;;5054872;28;20040;-84
2022/01/26 04:43:50;;;;;;;24.10;9.95;;;4.20;87.80;;;;;;5055744;28;20040;-84
2022/01/26 04:46:17;;;;;;;23.10;8.63;;;4.20;87.80;;;;;;5038233;28;20048;-84
2022/01/26 04:48:46;;;;;;;23.38;8.73;;;4.20;87.80;;;;;;5055401;28;20090;-84
2022/01/26 04:51:16;;;;;;;23.10;8.75;;;4.30;87.90;;;;;;5038954;28;20405;-84
2022/01/26 04:53:43;;;;;;;22.73;9.05;;;4.30;87.90;;;;;;5022026;28;20102;-85
2022/01/26 04:56:13;;;;;;;21.55;7.90;;;4.30;87.90;;;;;;5021934;28;20048;-84
2022/01/26 04:58:42;;;;;;;25.17;8.80;;;4.30;88.00;;;;;;5041273;28;20463;-84
2022/01/26 05:01:09;;;;;;;28.38;11.32;;;4.30;88.50;;;;;;5042315;28;20131;-84
2022/01/26 05:03:36;;;;;;;29.88;13.07;;;4.30;87.80;;;;;;5058544;28;20048;-85
2022/01/26 05:06:03;;;;;;;30.10;13.07;;;4.20;87.70;;;;;;5041704;28;20049;-85
2022/01/26 05:08:31;;;;;;;26.98;10.65;;;4.20;87.70;;;;;;5042365;28;20059;-85
2022/01/26 05:10:59;;;;;;;30.15;12.63;;;4.20;87.80;;;;;;5054410;28;20145;-85
2022/01/26 05:13:46;;;;;;;30.05;12.43;;;4.20;87.80;;;;;;5040866;28;20102;-85
2022/01/26 05:16:13;;;;;;;27.25;12.05;;;4.20;87.80;;;;;;5024950;28;20186;-85
2022/01/26 05:18:40;;;;;;;27.40;11.20;;;4.20;87.90;;;;;;5041349;28;20153;-84
2022/01/26 05:21:07;;;;;;;28.35;11.45;;;4.20;87.90;;;;;;5041119;28;20503;-84
2022/01/26 05:23:36;;;;;;;31.38;11.93;;;4.20;87.90;;;;;;5025632;28;20143;-84
2022/01/26 05:26:03;;;;;;;24.85;8.35;;;4.20;87.90;;;;;;5041520;28;20063;-84
2022/01/26 05:28:30;;;;;;;29.67;11.80;;;4.30;88.00;;;;;;5058392;28;20119;-84
2022/01/26 05:30:57;;;;;;;34.25;13.40;;;4.30;88.00;;;;;;5042128;28;20071;-84
2022/01/26 05:33:24;;;;;;;38.05;15.35;;;4.30;87.90;;;;;;5041862;28;20501;-85
2022/01/26 05:35:51;;;;;;;40.13;17.52;;;4.30;87.80;;;;;;5024995;28;20090;-84
2022/01/26 05:38:19;;;;;;;35.78;15.50;;;4.20;87.80;;;;;;5008907;28;20115;-84
2022/01/26 05:40:46;;;;;;;40.17;17.85;;;4.30;87.90;;;;;;5009033;28;20102;-84
2022/01/26 05:43:16;;;;;;;46.55;18.25;;;4.20;87.70;;;;;;5009899;28;20037;-84
2022/01/26 05:45:48;;;;;;;37.05;14.63;;;4.20;88.40;;;;;;5040831;28;20052;-85
2022/01/26 05:48:15;;;;;;;41.33;17.63;;;4.20;87.80;;;;;;5041239;28;20048;-85
2022/01/26 05:50:53;;;;;;;39.20;17.42;;;4.20;87.80;;;;;;5040886;28;20041;-84
2022/01/26 05:53:21;;;;;;;52.72;21.48;;;4.20;87.80;;;;;;5075518;28;20044;-85
2022/01/26 05:55:50;;;;;;;45.33;19.60;;;4.20;87.70;;;;;;5057946;28;20858;-85
2022/01/26 05:58:17;;;;;;;44.47;20.00;;;4.10;87.70;;;;;;5041216;28;20047;-84
2022/01/26 06:00:46;;;;;;;52.83;22.17;;;4.20;87.80;;;;;;5041507;28;20044;-85
2022/01/26 06:03:14;;;;;;;56.75;24.40;;;4.10;87.70;;;;;;5041097;28;20094;-85
2022/01/26 06:05:41;;;;;;;56.55;22.92;;;4.10;87.60;;;;;;5024647;28;20052;-84
2022/01/26 06:08:08;;;;;;;46.95;19.77;;;4.10;87.60;;;;;;5024341;28;20049;-84
2022/01/26 06:10:35;;;;;;;48.40;20.03;;;4.10;87.70;;;;;;5023590;28;20049;-84
2022/01/26 06:13:02;;;;;;;45.80;19.65;;;4.10;87.80;;;;;;5040922;28;20052;-84
2022/01/26 06:15:29;;;;;;;46.25;18.83;;;4.20;87.90;;;;;;5024618;28;20118;-84
2022/01/26 06:17:56;;;;;;;49.92;19.02;;;4.20;87.80;;;;;;5024556;28;20041;-85
2022/01/26 06:20:23;;;;;;;59.67;25.08;;;4.20;87.70;;;;;;5057082;28;20041;-84
2022/01/26 06:22:50;;;;;;;63.80;25.25;;;4.10;87.60;;;;;;5024077;28;20060;-84
2022/01/26 06:25:20;;;;;;;74.55;30.42;;;4.10;87.50;;;;;;5040776;28;20113;-85
2022/01/26 06:27:51;;;;;;;73.18;29.55;;;4.10;87.40;;;;;;5040892;28;20045;-86
2022/01/26 06:30:18;;;;;;;66.63;26.52;;;4.10;88.10;;;;;;5057216;28;20044;-85
2022/01/26 06:32:45;;;;;;;59.50;25.67;;;4.10;87.60;;;;;;5057352;28;20036;-87
2022/01/26 06:35:12;;;;;;;73.13;27.90;;;4.10;87.70;;;;;;5040360;28;20094;-86
2022/01/26 06:37:39;;;;;;;64.57;26.90;;;4.10;87.60;;;;;;5023721;28;20053;-87
2022/01/26 06:40:07;;;;;;;58.20;22.30;;;4.10;87.70;;;;;;5040656;28;20496;-84
2022/01/26 06:42:48;;;;;;;65.00;27.25;;;4.00;87.70;;;;;;5039845;28;20044;-85
2022/01/26 06:45:23;;;;;;;59.00;25.23;;;4.00;87.70;;;;;;5040653;28;20135;-86
2022/01/26 06:48:37;;;;;;;54.42;23.25;;;4.00;87.70;;;;;;5057247;28;20037;-86
2022/01/26 06:50:39;;;;;;;58.42;24.25;;;4.00;87.80;;;;;;5029400;28;20048;-84
2022/01/26 06:53:09;;;;;;;59.85;24.15;;;4.00;87.80;;;;;;5057098;28;20032;-84
2022/01/26 06:55:38;;;;;;;59.55;24.25;;;4.00;87.90;;;;;;5040076;28;20409;-86
2022/01/26 06:58:06;;;;;;;63.95;26.48;;;4.10;87.90;;;;;;5040046;28;20048;-84
2022/01/26 07:00:33;;;;;;;63.33;28.15;;;4.10;87.90;;;;;;5039997;28;20483;-86
2022/01/26 07:03:00;;;;;;;58.90;25.48;;;4.10;87.80;;;;;;5039792;28;20489;-82
2022/01/26 07:05:27;;;;;;;52.83;22.45;;;4.00;87.90;;;;;;5006586;28;20040;-85
2022/01/26 07:07:55;;;;;;;62.90;26.17;;;4.00;88.00;;;;;;5007411;28;20041;-87
2022/01/26 07:10:22;;;;;;;65.50;26.58;;;4.00;88.00;;;;;;5039932;28;20076;-86
2022/01/26 07:12:52;;;;;;;64.88;26.25;;;4.00;88.00;;;;;;5039920;28;20044;-87
2022/01/26 07:23:41;;;;;;;76.05;31.38;;;4.00;88.00;;;;;;5056154;28;20484;-88
2022/01/26 07:26:08;;;;;;;81.97;33.35;;;3.90;88.00;;;;;;5039557;28;20048;-86
2022/01/26 07:28:38;;;;;;;83.93;33.17;;;3.90;88.10;;;;;;5039583;28;20048;-87
2022/01/26 07:31:09;;;;;;;82.35;31.95;;;3.90;88.10;;;;;;5040254;28;20067;-87
2022/01/26 07:33:39;;;;;;;76.93;30.40;;;3.90;88.30;;;;;;5039714;28;20050;-86
2022/01/26 07:36:06;;;;;;;70.43;30.10;;;3.90;88.30;;;;;;5039252;28;20048;-86
2022/01/26 07:38:34;;;;;;;69.90;26.77;;;3.90;88.40;;;;;;5038995;28;20137;-85
2022/01/26 07:41:05;;;;;;;76.15;28.55;;;3.90;88.50;;;;;;5039523;28;20040;-85
2022/01/26 07:43:32;;;;;;;74.60;29.48;;;3.90;88.40;;;;;;5039114;28;20052;-85
2022/01/26 07:46:06;;;;;;;65.20;27.17;;;3.90;88.50;;;;;;5038857;28;20044;-85
2022/01/26 07:48:36;;;;;;;70.45;26.77;;;3.90;88.50;;;;;;5038926;28;20060;-85
2022/01/26 07:51:05;;;;;;;67.32;26.20;;;3.90;88.60;;;;;;5038620;28;20055;-80
2022/01/26 07:53:33;;;;;;;69.20;29.07;;;3.90;88.60;;;;;;5038073;28;20057;-80
2022/01/26 07:56:00;;;;;;;62.03;24.90;;;3.90;88.70;;;;;;5053987;28;20036;-80
2022/01/26 07:58:27;;;;;;;61.00;25.10;;;3.90;88.70;;;;;;5054186;28;20040;-81
2022/01/26 08:00:54;;;;;;;73.40;28.67;;;3.90;88.80;;;;;;5037623;28;20052;-80
2022/01/26 08:03:21;;;;;;;81.68;33.45;;;4.00;88.90;;;;;;5021612;28;20071;-80
2022/01/26 08:05:49;;;;;;;80.32;32.60;;;3.90;88.90;;;;;;5038238;28;20048;-81
2022/01/26 08:08:16;;;;;;;71.65;28.50;;;3.90;89.00;;;;;;5021986;28;20045;-85
2022/01/26 08:10:44;;;;;;;78.68;31.00;;;3.90;89.20;;;;;;5038970;28;20037;-85
2022/01/26 08:13:11;;;;;;;88.90;33.17;;;3.90;89.30;;;;;;5022676;28;20052;-85
2022/01/26 08:15:38;;;;;;;80.97;33.58;;;3.80;89.40;;;;;;5022199;28;20566;-86
2022/01/26 08:18:12;;;;;;;72.95;29.73;;;3.80;89.50;;;;;;5009150;28;20048;-86
2022/01/26 08:20:40;;;;;;;79.57;33.20;;;3.80;89.60;;;;;;5022725;28;20044;-86
2022/01/26 08:23:11;;;;;;;74.90;29.73;;;3.80;90.00;;;;;;5038909;28;20048;-86
2022/01/26 08:25:40;;;;;;;67.80;26.65;;;3.80;89.80;;;;;;5039394;28;20040;-86
2022/01/26 08:28:16;;;;;;;76.03;29.95;;;3.80;89.90;;;;;;5038342;28;20048;-85
2022/01/26 08:30:54;;;;;;;68.15;28.50;;;3.80;90.00;;;;;;5024869;28;20515;-85
2022/01/26 08:33:22;;;;;;;70.38;28.80;;;3.80;90.00;;;;;;5040189;28;20053;-80
2022/01/26 08:35:49;;;;;;;69.53;27.65;;;3.80;90.30;;;;;;5041045;28;20060;-80
2022/01/26 08:38:17;;;;;;;65.25;26.52;;;3.90;90.10;;;;;;5057682;28;20519;-80
2022/01/26 08:40:46;;;;;;;74.65;29.27;;;3.90;90.10;;;;;;5058071;28;20068;-80
2022/01/26 08:43:14;;;;;;;76.68;30.65;;;3.90;90.10;;;;;;5040959;28;20041;-80
2022/01/26 08:45:42;;;;;;;80.97;31.48;;;3.90;90.10;;;;;;5058093;28;20094;-80
2022/01/26 08:48:11;;;;;;;84.45;31.38;;;3.90;90.20;;;;;;5041414;28;20106;-80
2022/01/26 08:50:38;;;;;;;69.00;26.30;;;3.90;90.30;;;;;;5042563;28;20493;-86
2022/01/26 08:53:06;;;;;;;73.85;28.23;;;3.90;90.30;;;;;;5010275;28;20048;-87
2022/01/26 08:55:36;;;;;;;75.57;29.45;;;3.90;90.30;;;;;;5058412;28;20048;-86
2022/01/26 08:58:06;;;;;;;64.00;24.30;;;3.90;90.30;;;;;;5042375;28;20048;-87
2022/01/26 09:00:35;;;;;;;57.17;22.23;;;3.90;90.40;;;;;;5042193;28;20044;-87
2022/01/26 09:03:14;;;;;;;60.47;25.15;;;3.90;90.40;;;;;;5044106;28;20037;-88
2022/01/26 09:05:46;;;;;;;51.78;23.45;;;4.00;90.40;;;;;;5042283;28;20044;-88
2022/01/26 09:08:17;;;;;;;55.42;22.85;;;4.00;90.40;;;;;;5043035;28;20087;-86
2022/01/26 09:10:45;;;;;;;62.92;22.58;;;4.00;90.40;;;;;;5042320;28;20395;-86
2022/01/26 09:13:13;;;;;;;62.85;26.45;;;4.10;90.40;;;;;;5042550;28;20048;-86
2022/01/26 09:15:42;;;;;;;70.70;27.42;;;4.10;90.40;;;;;;5058992;28;20048;-86
2022/01/26 09:18:17;;;;;;;60.03;25.63;;;4.10;90.50;;;;;;5042466;28;20468;-88
2022/01/26 09:20:49;;;;;;;69.63;27.25;;;4.10;90.50;;;;;;5042286;28;20098;-88
2022/01/26 09:23:16;;;;;;;64.80;25.67;;;4.10;90.50;;;;;;5042032;28;20509;-88
2022/01/26 09:25:43;;;;;;;58.72;25.90;;;4.10;90.60;;;;;;5042319;28;20055;-88
2022/01/26 09:28:10;;;;;;;70.25;27.15;;;4.10;90.60;;;;;;5041949;28;20849;-86
2022/01/26 09:30:37;;;;;;;66.47;25.95;;;4.10;90.60;;;;;;5042046;28;20502;-87
2022/01/26 09:33:05;;;;;;;70.05;27.58;;;4.10;90.60;;;;;;5041985;28;20045;-85
2022/01/26 09:35:32;;;;;;;63.28;26.60;;;4.20;90.60;;;;;;5041713;28;20059;-86
2022/01/26 09:38:04;;;;;;;70.13;27.23;;;4.20;90.60;;;;;;5042254;28;20565;-87
2022/01/26 09:40:37;;;;;;;70.78;28.85;;;4.20;90.60;;;;;;5041861;28;20048;-87
2022/01/26 09:43:17;;;;;;;65.47;26.50;;;4.20;90.60;;;;;;5041415;28;20068;-87
2022/01/26 09:45:55;;;;;;;71.00;30.17;;;4.30;90.70;;;;;;5040852;28;20098;-88
2022/01/26 09:48:29;;;;;;;69.32;28.00;;;4.30;90.70;;;;;;5042274;28;20124;-87
2022/01/26 09:50:57;;;;;;;66.40;28.50;;;4.30;90.70;;;;;;5041834;28;20072;-87
2022/01/26 09:53:31;;;;;;;58.80;24.83;;;4.30;90.70;;;;;;5057727;28;20048;-86
2022/01/26 09:56:03;;;;;;;59.35;25.65;;;4.30;90.70;;;;;;5041111;28;20052;-87
2022/01/26 09:58:40;;;;;;;64.72;27.63;;;4.30;90.70;;;;;;5041738;28;20496;-87
2022/01/26 10:01:15;;;;;;;63.65;26.50;;;4.30;90.70;;;;;;5041447;28;20427;-89
2022/01/26 10:03:46;;;;;;;70.03;28.38;;;4.30;90.70;;;;;;5057968;28;20592;-89
2022/01/26 10:06:24;;;;;;;69.30;29.42;;;4.40;90.70;;;;;;5025755;28;20040;-88
2022/01/26 10:17:25;;;;;;;54.90;23.02;;;4.40;90.70;;;;;;5043141;28;20052;-86
2022/01/26 10:20:04;;;;;;;60.10;23.80;;;4.40;90.70;;;;;;5040972;28;20072;-88
2022/01/26 10:22:36;;;;;;;63.58;26.67;;;4.50;90.80;;;;;;5042203;28;20132;-88
2022/01/26 10:25:13;;;;;;;62.35;26.58;;;4.50;90.80;;;;;;5040612;28;20143;-81
2022/01/26 10:28:01;;;;;;;67.18;28.08;;;4.50;90.80;;;;;;5042951;28;20050;-82
2022/01/26 10:30:33;;;;;;;65.40;27.63;;;4.50;90.80;;;;;;5039410;28;20140;-81
2022/01/26 10:33:09;;;;;;;70.43;28.08;;;4.50;90.80;;;;;;5040342;28;20084;-87
2022/01/26 10:35:37;;;;;;;69.57;28.02;;;4.50;90.80;;;;;;5040367;28;20217;-85
2022/01/26 10:38:08;;;;;;;58.42;24.75;;;4.50;90.90;;;;;;5056724;28;20132;-86
2022/01/26 10:40:38;;;;;;;56.03;23.20;;;4.50;90.90;;;;;;5039779;28;20109;-86
2022/01/26 10:43:12;;;;;;;58.58;25.17;;;4.60;90.90;;;;;;5056270;28;20051;-86
2022/01/26 10:45:49;;;;;;;59.97;25.98;;;4.60;90.90;;;;;;5040540;28;20567;-86
2022/01/26 10:48:44;;;;;;;61.85;25.73;;;4.60;90.80;;;;;;5040563;28;20052;-86
2022/01/26 10:54:37;;;;;;;66.95;27.75;;;4.60;90.80;;;;;;5043154;28;20048;-87
2022/01/26 10:57:09;;;;;;;59.80;25.98;;;4.60;90.80;;;;;;5040217;28;20086;-86
2022/01/26 10:59:49;;;;;;;51.90;24.45;;;4.60;90.80;;;;;;5040643;28;20041;-87
2022/01/26 11:02:24;;;;;;;56.72;24.23;;;4.70;90.90;;;;;;5024129;28;20554;-86
2022/01/26 11:04:58;;;;;;;52.65;22.70;;;4.70;90.90;;;;;;5040684;28;20047;-87
2022/01/26 11:07:45;;;;;;;48.85;22.48;;;4.70;90.80;;;;;;5024363;28;20045;-86
2022/01/26 11:10:47;;;;;;;48.55;21.52;;;4.80;90.80;;;;;;5040806;28;20044;-87
2022/01/26 11:13:56;;;;;;;44.22;19.65;;;4.80;90.80;;;;;;5040224;28;20166;-86
2022/01/26 11:17:03;;;;;;;54.30;24.67;;;4.80;90.70;;;;;;5042535;28;20826;-87
2022/01/26 11:20:42;;;;;;;;;;;;;;;;;;;;;
2022/01/26 11:23:36;;;;;;;49.40;21.23;;;4.80;90.60;;;;;;5056100;28;20047;-87
2022/01/26 11:26:24;;;;;;;51.50;23.63;;;4.80;90.60;;;;;;5040626;28;20047;-87
2022/01/26 11:29:13;;;;;;;48.42;20.63;;;4.80;90.50;;;;;;5055976;28;20041;-87
2022/01/26 11:31:46;;;;;;;43.92;20.80;;;4.80;90.60;;;;;;5039777;28;20044;-87
2022/01/26 11:34:18;;;;;;;36.63;17.27;;;4.80;90.60;;;;;;5040400;28;20052;-86
2022/01/26 11:36:49;;;;;;;37.58;19.13;;;4.90;90.60;;;;;;5039121;28;20130;-86
2022/01/26 11:45:34;;;;;;;36.38;17.00;;;5.00;90.50;;;;;;5043818;28;20040;-85
2022/01/26 11:48:22;;;;;;;35.15;16.33;;;5.00;90.50;;;;;;5019738;28;20041;-93
2022/01/26 11:50:59;;;;;;;36.20;17.23;;;5.00;90.50;;;;;;5038518;28;20056;-83
2022/01/26 11:53:28;;;;;;;39.38;18.55;;;5.00;90.70;;;;;;5037974;28;20067;-83
2022/01/26 11:56:07;;;;;;;34.15;15.75;;;5.00;90.50;;;;;;5035301;28;20041;-88
2022/01/26 11:58:42;;;;;;;33.90;14.90;;;5.00;90.50;;;;;;5024648;28;20135;-95
2022/01/26 12:01:21;;;;;;;38.90;16.80;;;5.10;90.50;;;;;;5039102;28;20040;-94
2022/01/26 12:04:08;;;;;;;41.50;17.77;;;5.10;90.50;;;;;;5024298;28;20045;-90
2022/01/26 12:06:46;;;;;;;37.58;16.95;;;5.10;90.40;;;;;;5056896;28;20036;-95
2022/01/26 12:09:17;;;;;;;37.42;16.55;;;5.10;90.40;;;;;;5060933;28;20131;-88
2022/01/26 12:15:58;;;;;;;42.92;18.80;;;5.20;90.40;;;;;;5078405;28;20132;-94
2022/01/26 12:18:36;;;;;;;48.08;20.40;;;5.20;90.40;;;;;;5043699;28;20044;-86
2022/01/26 12:43:53;;;;;;;40.30;18.65;;;5.30;90.40;;;;;;5044189;28;20079;-86
2022/01/26 12:46:24;;;;;;;41.35;18.67;;;5.30;90.30;;;;;;5041868;28;20048;-85
2022/01/26 12:48:54;;;;;;;40.60;18.55;;;5.30;90.40;;;;;;5042477;28;20147;-85
2022/01/26 12:51:26;;;;;;;41.17;19.05;;;5.40;90.40;;;;;;5042220;28;20130;-86
2022/01/26 12:53:56;;;;;;;37.92;18.02;;;5.40;90.30;;;;;;5041884;28;20055;-85
2022/01/26 12:56:26;;;;;;;35.65;17.25;;;5.50;90.40;;;;;;5042024;28;20072;-84
2022/01/26 12:59:06;;;;;;;43.95;19.23;;;5.50;90.40;;;;;;5058114;28;20045;-83
2022/01/26 13:01:34;;;;;;;48.15;19.35;;;5.50;90.30;;;;;;5058391;28;20094;-86
2022/01/26 13:04:12;;;;;;;38.28;18.70;;;5.50;90.30;;;;;;5042127;28;20399;-85
2022/01/26 13:06:45;;;;;;;41.03;18.13;;;5.50;90.30;;;;;;5026180;28;20047;-85
2022/01/26 13:09:25;;;;;;;;;;;5.60;90.40;;;;;;5059516;28;20052;-90
2022/01/26 13:11:59;;;;;;;43.58;19.67;;;5.50;90.30;;;;;;5041472;28;19927;-89
2022/01/26 13:14:54;;;;;;;43.40;21.35;;;5.60;90.30;;;;;;5049396;28;20046;-91
2022/01/26 13:28:33;;;;;;;43.00;19.40;;;5.50;90.30;;;;;;5038767;28;20045;-90
2022/01/26 13:42:09;;;;;;;37.67;18.40;;;5.60;90.40;;;;;;5055271;28;20037;-91
2022/01/26 13:50:13;;;;;;;38.92;19.38;;;5.60;90.40;;;;;;5038463;28;20052;-90
2022/01/26 13:52:47;;;;;;;53.05;23.20;;;5.60;90.40;;;;;;5021916;28;20071;-87
2022/01/26 13:55:45;;;;;;;43.65;21.77;;;5.60;90.40;;;;;;5021804;28;20068;-94
2022/01/26 14:03:21;;;;;;;44.65;21.25;;;5.50;90.40;;;;;;4943385;28;20618;-87
2022/01/26 14:05:51;;;;;;;43.97;21.63;;;5.40;90.50;;;;;;5022509;28;20048;-91
2022/01/26 14:08:22;;;;;;;43.25;20.58;;;5.40;90.50;;;;;;5023292;28;20056;-91
2022/01/26 14:10:49;;;;;;;45.05;19.95;;;5.40;90.50;;;;;;5022262;28;20058;-90
2022/01/26 14:13:21;;;;;;;42.08;20.17;;;5.40;90.60;;;;;;5022310;28;20049;-90
2022/01/26 14:15:50;;;;;;;47.08;20.98;;;5.40;90.60;;;;;;5037983;28;20045;-89
2022/01/26 14:21:12;;;;;;;38.72;18.75;;;5.40;90.60;;;;;;5038242;28;20041;-88
2022/01/26 14:23:59;;;;;;;46.72;20.33;;;5.40;90.80;;;;;;5022181;28;20045;-88
2022/01/26 14:26:31;;;;;;;42.95;20.52;;;5.40;90.60;;;;;;5038142;28;20156;-92
2022/01/26 14:29:00;;;;;;;36.55;18.65;;;5.40;90.60;;;;;;5021322;28;20408;-88
2022/01/26 14:31:52;;;;;;;40.08;19.15;;;5.40;90.60;;;;;;5020546;28;20045;-92
2022/01/26 14:35:03;;;;;;;40.35;19.42;;;5.40;90.60;;;;;;5021719;28;20053;-93
2022/01/26 14:55:11;;;;;;;43.42;19.13;;;5.50;90.70;;;;;;5036317;28;20052;-84
2022/01/26 15:20:19;;;;;;;39.03;18.70;;;5.50;90.80;;;;;;5038598;28;20052;-89
2022/01/26 15:30:22;;;;;;;46.15;20.20;;;5.50;90.90;;;;;;5052920;28;20059;-92
2022/01/26 15:33:30;;;;;;;42.38;20.95;;;5.50;90.90;;;;;;5022340;28;20076;-90
2022/01/26 15:44:03;;;;;;;37.67;18.15;;;5.50;90.90;;;;;;5036481;28;20066;-88
2022/01/26 15:52:32;;;;;;;36.72;17.42;;;5.50;91.00;;;;;;5020881;28;20049;-89
2022/01/26 16:38:34;;;;;;;39.95;17.95;;;5.50;91.10;;;;;;5023320;28;20056;-85
2022/01/26 18:26:44;;;;;;;57.10;26.42;;;5.20;91.40;;;;;;5037189;28;20077;-89
2022/01/26 18:51:35;;;;;;;52.80;25.25;;;5.20;91.50;;;;;;5034113;28;20049;-83
2022/01/26 18:54:04;;;;;;;59.00;25.92;;;5.10;91.40;;;;;;5032875;28;20486;-85
2022/01/26 18:56:32;;;;;;;53.90;26.30;;;5.10;91.40;;;;;;5016518;28;20045;-84
2022/01/26 18:58:59;;;;;;;50.63;24.02;;;5.10;91.50;;;;;;5033124;28;20041;-84
2022/01/26 19:01:27;;;;;;;51.53;24.27;;;5.10;91.50;;;;;;5033060;28;20136;-86
2022/01/26 19:04:17;;;;;;;54.33;24.65;;;5.10;91.80;;;;;;5032521;28;20073;-85
2022/01/26 19:06:50;;;;;;;46.55;23.40;;;5.10;91.50;;;;;;5032734;28;20075;-86
2022/01/26 19:09:21;;;;;;;;;;;5.10;91.50;;;;;;5033085;28;20140;-84
2022/01/26 19:11:55;;;;;;;51.25;22.70;;;5.10;91.50;;;;;;5016867;28;20023;-84
2022/01/26 19:14:34;;;;;;;56.38;25.13;;;5.10;91.50;;;;;;5017365;28;20042;-89
2022/01/26 19:17:10;;;;;;;62.15;26.75;;;5.00;91.50;;;;;;5016420;28;20091;-86
2022/01/26 19:25:08;;;;;;;61.45;28.13;;;4.90;91.40;;;;;;5031815;28;20493;-82
2022/01/26 19:52:11;;;;;;;56.00;24.70;;;4.90;91.50;;;;;;5031999;28;20406;-91
2022/01/26 19:54:41;;;;;;;53.50;25.08;;;4.90;91.50;;;;;;5015544;28;20080;-82
2022/01/26 19:57:09;;;;;;;51.58;22.10;;;4.90;91.50;;;;;;5032078;28;20084;-88
2022/01/26 19:59:36;;;;;;;47.72;21.73;;;4.90;91.50;;;;;;5015470;28;20046;-82
2022/01/26 20:02:05;;;;;;;48.20;21.63;;;4.90;91.60;;;;;;5031560;28;20073;-83
2022/01/26 20:04:33;;;;;;;51.75;22.38;;;4.90;91.60;;;;;;5031502;28;20034;-86
2022/01/26 20:07:07;;;;;;;48.78;22.45;;;5.00;91.50;;;;;;5015066;28;20468;-83
2022/01/26 20:09:42;;;;;;;49.78;21.77;;;5.00;91.50;;;;;;5014661;28;20815;-81
2022/01/26 20:12:19;;;;;;;47.50;21.05;;;5.00;91.50;;;;;;5015067;28;20514;-85
2022/01/26 20:14:46;;;;;;;52.95;22.60;;;5.00;91.50;;;;;;5031710;28;20061;-84
2022/01/26 20:17:13;;;;;;;49.03;22.65;;;5.00;91.50;;;;;;5031668;28;20485;-85
2022/01/26 20:19:40;;;;;;;58.45;25.75;;;5.00;91.50;;;;;;5015844;28;20049;-84
2022/01/26 20:22:08;;;;;;;51.45;22.55;;;4.90;91.70;;;;;;5031752;28;20486;-85